Allendorf, Iowa
Current Conditions -  °F | °C
As of 11:55 PM on Saturday 22 Nov 2014 (Local Time) from KSHL Reporting Station
Overcast Overcast  
Wind Chill: 50°   Ceiling: 1200
Heat Index: 50°   Visibility: 7mi
Dew Point: 50°   Wind: 13mph
Humidity: 100%   Direction: 200°SSW
Pressure: 29.47"   Gusts: NA
Location:  43.41°N, 95.64°W
Report Text: KSHL 230555Z AUTO 20011KT 7SM OVC012 10/10 A2947 RMK AO2
Loading
Personal Weather Stations






























Interactive Weather Map New forecast layout! Learn more

10-Day Weather Forecast

Advertisements
Track Severe Weather on mobile